Terminal Aerodrome Forecast
Issued by NWS North Platte, NE

Home | Current Version | Previous Version | Graphics & Text | Print | Product List | Glossary On
Versions: 1 2 3 4 5 6 7 8 9 10 11 12 13 14
432
FTUS43 KLBF 241730
TAFVTN
TAF
KVTN 241730Z 2418/2518 17009KT P6SM FEW250
     FM250400 16014G22KT P6SM FEW250 WS020/18040KT
     FM251100 23008KT P6SM SCT200
     FM251400 31010G18KT P6SM BKN200=

USA.gov is the U.S. government's official web portal to all federal, state and local government web resources and services.